Alice, Texas
Current Conditions -  °F | °C
As of 12:53 AM on Thursday 23 Oct 2014 (Local Time) from KALI Reporting Station
Clear Clear  
Wind Chill: 66°   Ceiling: Unl
Heat Index: 66°   Visibility: 10mi
Dew Point: 63°   Wind: 5mph
Humidity: 90%   Direction: 360°N
Pressure: 30.06"   Gusts: NA
Location:  27.75°N, 98.06°W
Report Text: KALI 230553Z AUTO 36004KT 10SM CLR 19/17 A3006 RMK AO2 SLP175 T01890172 10256 20189 403110183 50004
Loading
Personal Weather Stations






























Interactive Weather Map New forecast layout! Learn more

10-Day Weather Forecast

Advertisements
Track Severe Weather on mobile